sensor_id;sensor_type;location;lat;lon;timestamp;pressure;altitude;pressure_sealevel;temperature;humidity
84382;BME280;74572;51.834;5.820;2024-03-25T00:01:59;100821.00;;;3.43;84.06
84382;BME280;74572;51.834;5.820;2024-03-25T00:04:25;100822.00;;;3.35;84.16
84382;BME280;74572;51.834;5.820;2024-03-25T00:06:50;100827.78;;;3.34;84.47
84382;BME280;74572;51.834;5.820;2024-03-25T00:09:16;100822.16;;;3.27;84.24
84382;BME280;74572;51.834;5.820;2024-03-25T00:11:42;100821.00;;;3.23;84.26
84382;BME280;74572;51.834;5.820;2024-03-25T00:14:08;100823.00;;;3.17;84.41
84382;BME280;74572;51.834;5.820;2024-03-25T00:16:34;100820.72;;;3.10;84.58
84382;BME280;74572;51.834;5.820;2024-03-25T00:19:00;100814.47;;;3.15;85.00
84382;BME280;74572;51.834;5.820;2024-03-25T00:21:25;100803.66;;;3.06;84.66
84382;BME280;74572;51.834;5.820;2024-03-25T00:23:51;100810.69;;;3.00;84.80
84382;BME280;74572;51.834;5.820;2024-03-25T00:26:16;100813.22;;;3.00;84.77
84382;BME280;74572;51.834;5.820;2024-03-25T00:28:42;100815.31;;;2.95;84.94
84382;BME280;74572;51.834;5.820;2024-03-25T00:31:09;100815.19;;;2.84;85.21
84382;BME280;74572;51.834;5.820;2024-03-25T00:33:34;100819.22;;;2.82;84.79
84382;BME280;74572;51.834;5.820;2024-03-25T00:36:00;100819.69;;;2.77;85.15
84382;BME280;74572;51.834;5.820;2024-03-25T00:38:25;100812.16;;;2.77;85.05
84382;BME280;74572;51.834;5.820;2024-03-25T00:40:51;100800.63;;;2.80;85.16
84382;BME280;74572;51.834;5.820;2024-03-25T00:43:16;100812.56;;;2.92;85.32
84382;BME280;74572;51.834;5.820;2024-03-25T00:45:43;100805.16;;;2.84;85.00
84382;BME280;74572;51.834;5.820;2024-03-25T00:48:08;100803.63;;;2.75;85.23
84382;BME280;74572;51.834;5.820;2024-03-25T00:50:33;100800.09;;;2.73;85.27
84382;BME280;74572;51.834;5.820;2024-03-25T00:52:59;100798.34;;;2.72;85.31
84382;BME280;74572;51.834;5.820;2024-03-25T00:55:24;100800.72;;;2.71;85.77
84382;BME280;74572;51.834;5.820;2024-03-25T00:57:50;100804.38;;;2.64;85.35
84382;BME280;74572;51.834;5.820;2024-03-25T01:00:16;100798.41;;;2.54;85.53
84382;BME280;74572;51.834;5.820;2024-03-25T01:02:42;100814.25;;;2.53;85.72
84382;BME280;74572;51.834;5.820;2024-03-25T01:05:08;100809.09;;;2.51;85.91
84382;BME280;74572;51.834;5.820;2024-03-25T01:07:34;100811.84;;;2.54;85.86
84382;BME280;74572;51.834;5.820;2024-03-25T01:10:00;100808.59;;;2.55;85.49
84382;BME280;74572;51.834;5.820;2024-03-25T01:12:25;100818.03;;;2.58;85.93
84382;BME280;74572;51.834;5.820;2024-03-25T01:14:52;100817.00;;;2.56;85.76
84382;BME280;74572;51.834;5.820;2024-03-25T01:17:17;100811.38;;;2.58;85.80
84382;BME280;74572;51.834;5.820;2024-03-25T01:19:43;100818.41;;;2.62;85.94
84382;BME280;74572;51.834;5.820;2024-03-25T01:22:08;100818.94;;;2.78;86.09
84382;BME280;74572;51.834;5.820;2024-03-25T01:24:34;100822.59;;;2.92;85.56
84382;BME280;74572;51.834;5.820;2024-03-25T01:27:00;100818.34;;;3.01;84.91
84382;BME280;74572;51.834;5.820;2024-03-25T01:29:25;100816.59;;;3.00;85.24
84382;BME280;74572;51.834;5.820;2024-03-25T01:31:51;100817.75;;;3.04;85.42
84382;BME280;74572;51.834;5.820;2024-03-25T01:34:16;100824.25;;;3.12;85.44
84382;BME280;74572;51.834;5.820;2024-03-25T01:36:42;100815.72;;;3.20;85.20
84382;BME280;74572;51.834;5.820;2024-03-25T01:39:08;100820.50;;;3.17;85.23
84382;BME280;74572;51.834;5.820;2024-03-25T01:41:34;100816.34;;;3.18;85.46
84382;BME280;74572;51.834;5.820;2024-03-25T01:44:00;100824.75;;;3.28;85.21
84382;BME280;74572;51.834;5.820;2024-03-25T01:46:27;100822.50;;;3.31;85.14
84382;BME280;74572;51.834;5.820;2024-03-25T01:48:53;100815.44;;;3.27;85.17
84382;BME280;74572;51.834;5.820;2024-03-25T01:51:21;100815.84;;;3.22;85.32
84382;BME280;74572;51.834;5.820;2024-03-25T01:53:49;100824.03;;;3.19;85.54
84382;BME280;74572;51.834;5.820;2024-03-25T01:56:15;100826.78;;;3.12;85.44
84382;BME280;74572;51.834;5.820;2024-03-25T01:58:41;100824.75;;;3.08;85.30
84382;BME280;74572;51.834;5.820;2024-03-25T02:01:07;100826.03;;;3.03;85.64
84382;BME280;74572;51.834;5.820;2024-03-25T02:03:37;100817.97;;;2.97;85.55
84382;BME280;74572;51.834;5.820;2024-03-25T02:06:06;100825.88;;;2.91;85.53
84382;BME280;74572;51.834;5.820;2024-03-25T02:08:34;100834.28;;;2.92;85.96
84382;BME280;74572;51.834;5.820;2024-03-25T02:10:59;100830.13;;;2.92;85.83
84382;BME280;74572;51.834;5.820;2024-03-25T02:13:25;100831.28;;;2.96;85.74
84382;BME280;74572;51.834;5.820;2024-03-25T02:15:51;100833.31;;;3.00;85.63
84382;BME280;74572;51.834;5.820;2024-03-25T02:18:18;100826.03;;;3.03;85.77
84382;BME280;74572;51.834;5.820;2024-03-25T02:20:44;100821.75;;;3.02;85.72
84382;BME280;74572;51.834;5.820;2024-03-25T02:23:11;100825.50;;;2.97;85.49
84382;BME280;74572;51.834;5.820;2024-03-25T02:25:39;100825.63;;;2.88;85.69
84382;BME280;74572;51.834;5.820;2024-03-25T02:28:05;100823.47;;;2.83;86.13
84382;BME280;74572;51.834;5.820;2024-03-25T02:30:31;100828.72;;;2.75;86.30
84382;BME280;74572;51.834;5.820;2024-03-25T02:32:57;100825.22;;;2.73;86.20
84382;BME280;74572;51.834;5.820;2024-03-25T02:35:24;100831.25;;;2.75;86.15
84382;BME280;74572;51.834;5.820;2024-03-25T02:37:51;100829.34;;;2.73;86.39
84382;BME280;74572;51.834;5.820;2024-03-25T02:40:26;100822.44;;;2.70;86.10
84382;BME280;74572;51.834;5.820;2024-03-25T02:42:52;100838.03;;;2.76;86.00
84382;BME280;74572;51.834;5.820;2024-03-25T02:45:18;100835.00;;;2.70;86.18
84382;BME280;74572;51.834;5.820;2024-03-25T02:47:45;100835.88;;;2.71;86.23
84382;BME280;74572;51.834;5.820;2024-03-25T02:50:10;100835.88;;;2.71;86.26
84382;BME280;74572;51.834;5.820;2024-03-25T02:52:36;100832.25;;;2.67;86.25
84382;BME280;74572;51.834;5.820;2024-03-25T02:55:01;100828.47;;;2.62;86.55
84382;BME280;74572;51.834;5.820;2024-03-25T02:57:27;100828.94;;;2.58;86.44
84382;BME280;74572;51.834;5.820;2024-03-25T02:59:52;100835.06;;;2.52;86.48
84382;BME280;74572;51.834;5.820;2024-03-25T03:02:18;100832.94;;;2.46;86.29
84382;BME280;74572;51.834;5.820;2024-03-25T03:04:44;100826.44;;;2.48;86.48
84382;BME280;74572;51.834;5.820;2024-03-25T03:07:09;100822.38;;;2.40;86.51
84382;BME280;74572;51.834;5.820;2024-03-25T03:09:35;100823.88;;;2.38;86.74
84382;BME280;74572;51.834;5.820;2024-03-25T03:12:00;100817.47;;;2.41;86.81
84382;BME280;74572;51.834;5.820;2024-03-25T03:14:26;100818.22;;;2.40;86.63
84382;BME280;74572;51.834;5.820;2024-03-25T03:16:51;100825.63;;;2.39;86.81
84382;BME280;74572;51.834;5.820;2024-03-25T03:19:24;100814.16;;;2.32;86.54
84382;BME280;74572;51.834;5.820;2024-03-25T03:21:50;100820.19;;;2.34;86.72
84382;BME280;74572;51.834;5.820;2024-03-25T03:24:15;100819.94;;;2.31;86.84
84382;BME280;74572;51.834;5.820;2024-03-25T03:26:41;100815.31;;;2.36;86.80
84382;BME280;74572;51.834;5.820;2024-03-25T03:29:06;100818.56;;;2.35;86.90
84382;BME280;74572;51.834;5.820;2024-03-25T03:31:32;100823.31;;;2.32;86.72
84382;BME280;74572;51.834;5.820;2024-03-25T03:33:57;100818.06;;;2.29;86.74
84382;BME280;74572;51.834;5.820;2024-03-25T03:36:23;100821.34;;;2.28;87.27
84382;BME280;74572;51.834;5.820;2024-03-25T03:38:51;100817.31;;;2.30;86.76
84382;BME280;74572;51.834;5.820;2024-03-25T03:41:17;100814.28;;;2.24;86.83
84382;BME280;74572;51.834;5.820;2024-03-25T03:43:43;100808.47;;;2.15;86.68
84382;BME280;74572;51.834;5.820;2024-03-25T03:46:08;100818.47;;;2.04;86.85
84382;BME280;74572;51.834;5.820;2024-03-25T03:48:34;100814.41;;;1.96;86.80
84382;BME280;74572;51.834;5.820;2024-03-25T03:51:01;100807.84;;;1.88;87.18
84382;BME280;74572;51.834;5.820;2024-03-25T03:53:26;100812.25;;;1.91;87.15
84382;BME280;74572;51.834;5.820;2024-03-25T03:55:55;100806.41;;;2.00;87.46
84382;BME280;74572;51.834;5.820;2024-03-25T03:58:22;100800.91;;;2.04;87.26
84382;BME280;74572;51.834;5.820;2024-03-25T04:00:47;100800.38;;;1.98;86.68
84382;BME280;74572;51.834;5.820;2024-03-25T04:03:13;100798.19;;;1.93;86.98
84382;BME280;74572;51.834;5.820;2024-03-25T04:05:39;100805.34;;;1.88;87.04
84382;BME280;74572;51.834;5.820;2024-03-25T04:08:05;100800.25;;;1.78;86.75
84382;BME280;74572;51.834;5.820;2024-03-25T04:10:31;100809.53;;;1.79;86.97
84382;BME280;74572;51.834;5.820;2024-03-25T04:12:56;100807.91;;;1.80;87.46
84382;BME280;74572;51.834;5.820;2024-03-25T04:15:22;100808.81;;;1.80;87.35
84382;BME280;74572;51.834;5.820;2024-03-25T04:17:48;100809.09;;;1.93;87.12
84382;BME280;74572;51.834;5.820;2024-03-25T04:20:16;100810.59;;;2.10;87.23
84382;BME280;74572;51.834;5.820;2024-03-25T04:22:42;100822.56;;;2.23;86.93
84382;BME280;74572;51.834;5.820;2024-03-25T04:25:09;100819.31;;;2.24;86.65
84382;BME280;74572;51.834;5.820;2024-03-25T04:27:46;100815.03;;;2.23;86.54
84382;BME280;74572;51.834;5.820;2024-03-25T04:30:12;100818.06;;;2.29;86.86
84382;BME280;74572;51.834;5.820;2024-03-25T04:32:38;100812.06;;;2.37;86.60
84382;BME280;74572;51.834;5.820;2024-03-25T04:35:07;100804.78;;;2.40;86.64
84382;BME280;74572;51.834;5.820;2024-03-25T04:37:34;100809.59;;;2.47;86.52
84382;BME280;74572;51.834;5.820;2024-03-25T04:39:59;100809.09;;;2.51;86.46
84382;BME280;74572;51.834;5.820;2024-03-25T04:42:25;100808.59;;;2.55;86.58
84382;BME280;74572;51.834;5.820;2024-03-25T04:44:51;100808.88;;;2.58;86.60
84382;BME280;74572;51.834;5.820;2024-03-25T04:47:17;100808.88;;;2.58;86.12
84382;BME280;74572;51.834;5.820;2024-03-25T04:49:43;100809.88;;;2.50;86.20
84382;BME280;74572;51.834;5.820;2024-03-25T04:52:09;100812.19;;;2.38;86.29
84382;BME280;74572;51.834;5.820;2024-03-25T04:54:34;100807.16;;;2.28;86.48
84382;BME280;74572;51.834;5.820;2024-03-25T04:57:00;100816.53;;;2.21;86.79
84382;BME280;74572;51.834;5.820;2024-03-25T04:59:25;100812.22;;;2.10;86.88
84382;BME280;74572;51.834;5.820;2024-03-25T05:01:51;100806.81;;;2.05;86.74
84382;BME280;74572;51.834;5.820;2024-03-25T05:04:18;100821.03;;;1.96;87.04
84382;BME280;74572;51.834;5.820;2024-03-25T05:06:43;100820.91;;;1.94;87.14
84382;BME280;74572;51.834;5.820;2024-03-25T05:09:09;100812.88;;;1.88;86.93
84382;BME280;74572;51.834;5.820;2024-03-25T05:11:35;100804.47;;;1.88;87.52
84382;BME280;74572;51.834;5.820;2024-03-25T05:14:01;100821.41;;;1.90;87.01
84382;BME280;74572;51.834;5.820;2024-03-25T05:16:26;100812.59;;;1.85;87.33
84382;BME280;74572;51.834;5.820;2024-03-25T05:18:52;100815.31;;;1.78;87.10
84382;BME280;74572;51.834;5.820;2024-03-25T05:21:17;100810.91;;;1.76;87.37
84382;BME280;74572;51.834;5.820;2024-03-25T05:23:42;100830.50;;;1.80;87.22
84382;BME280;74572;51.834;5.820;2024-03-25T05:26:08;100828.84;;;1.80;87.16
84382;BME280;74572;51.834;5.820;2024-03-25T05:28:34;100833.59;;;1.77;87.15
84382;BME280;74572;51.834;5.820;2024-03-25T05:31:06;100831.69;;;1.74;87.17
84382;BME280;74572;51.834;5.820;2024-03-25T05:33:36;100834.84;;;1.72;86.90
84382;BME280;74572;51.834;5.820;2024-03-25T05:36:03;100838.75;;;1.79;87.15
84382;BME280;74572;51.834;5.820;2024-03-25T05:38:29;100851.09;;;1.86;86.92
84382;BME280;74572;51.834;5.820;2024-03-25T05:40:55;100846.50;;;1.90;86.88
84382;BME280;74572;51.834;5.820;2024-03-25T05:43:21;100856.28;;;1.97;87.13
84382;BME280;74572;51.834;5.820;2024-03-25T05:45:53;100838.25;;;2.01;86.50
84382;BME280;74572;51.834;5.820;2024-03-25T05:48:24;100845.88;;;2.22;86.74
84382;BME280;74572;51.834;5.820;2024-03-25T05:51:06;100836.66;;;2.31;86.74
84382;BME280;74572;51.834;5.820;2024-03-25T05:53:33;100843.72;;;2.45;86.24
84382;BME280;74572;51.834;5.820;2024-03-25T05:55:58;100847.00;;;2.54;86.10
84382;BME280;74572;51.834;5.820;2024-03-25T05:58:27;100837.63;;;2.62;86.28
84382;BME280;74572;51.834;5.820;2024-03-25T06:00:53;100832.25;;;2.67;86.06
84382;BME280;74572;51.834;5.820;2024-03-25T06:03:19;100840.81;;;2.80;85.96
84382;BME280;74572;51.834;5.820;2024-03-25T06:05:44;100830.53;;;2.87;86.10
84382;BME280;74572;51.834;5.820;2024-03-25T06:08:10;100825.00;;;3.11;85.37
84382;BME280;74572;51.834;5.820;2024-03-25T06:10:43;100830.44;;;3.36;84.85
84382;BME280;74572;51.834;5.820;2024-03-25T06:13:09;100822.22;;;3.48;84.88
84382;BME280;74572;51.834;5.820;2024-03-25T06:15:34;100817.97;;;3.47;84.82
84382;BME280;74572;51.834;5.820;2024-03-25T06:18:00;100823.38;;;3.52;84.94
84382;BME280;74572;51.834;5.820;2024-03-25T06:20:25;100818.97;;;3.60;84.89
84382;BME280;74572;51.834;5.820;2024-03-25T06:22:51;100810.16;;;3.65;85.03
84382;BME280;74572;51.834;5.820;2024-03-25T06:25:16;100811.38;;;3.80;84.99
84382;BME280;74572;51.834;5.820;2024-03-25T06:27:42;100806.59;;;3.83;84.74
84382;BME280;74572;51.834;5.820;2024-03-25T06:30:09;100811.66;;;4.05;84.61
84382;BME280;74572;51.834;5.820;2024-03-25T06:32:54;100816.16;;;4.19;84.13
84382;BME280;74572;51.834;5.820;2024-03-25T06:35:38;100818.22;;;4.35;84.10
84382;BME280;74572;51.834;5.820;2024-03-25T06:38:04;100819.03;;;4.45;83.79
84382;BME280;74572;51.834;5.820;2024-03-25T06:40:29;100815.75;;;5.12;82.62
84382;BME280;74572;51.834;5.820;2024-03-25T06:42:56;100816.56;;;5.34;82.09
84382;BME280;74572;51.834;5.820;2024-03-25T06:45:21;100809.78;;;5.33;81.45
84382;BME280;74572;51.834;5.820;2024-03-25T06:47:47;100812.25;;;5.21;82.09
84382;BME280;74572;51.834;5.820;2024-03-25T06:50:12;100813.56;;;5.16;82.64
84382;BME280;74572;51.834;5.820;2024-03-25T06:52:38;100806.59;;;5.36;82.74
84382;BME280;74572;51.834;5.820;2024-03-25T06:55:03;100802.69;;;5.86;81.26
84382;BME280;74572;51.834;5.820;2024-03-25T06:57:29;100804.97;;;7.16;79.33
84382;BME280;74572;51.834;5.820;2024-03-25T06:59:55;100805.50;;;8.01;77.07
84382;BME280;74572;51.834;5.820;2024-03-25T07:02:23;100793.06;;;8.73;75.23
84382;BME280;74572;51.834;5.820;2024-03-25T07:04:49;100800.94;;;9.06;74.96
84382;BME280;74572;51.834;5.820;2024-03-25T07:07:14;100803.19;;;9.58;74.21
84382;BME280;74572;51.834;5.820;2024-03-25T07:09:40;100800.63;;;9.29;75.26
84382;BME280;74572;51.834;5.820;2024-03-25T07:12:06;100800.47;;;9.55;74.82
84382;BME280;74572;51.834;5.820;2024-03-25T07:14:35;100791.53;;;11.20;72.10
84382;BME280;74572;51.834;5.820;2024-03-25T07:17:01;100794.88;;;11.19;71.44
84382;BME280;74572;51.834;5.820;2024-03-25T07:19:29;100799.97;;;11.19;71.46
84382;BME280;74572;51.834;5.820;2024-03-25T07:21:55;100795.34;;;11.62;70.97
84382;BME280;74572;51.834;5.820;2024-03-25T07:24:20;100792.06;;;10.96;71.39
84382;BME280;74572;51.834;5.820;2024-03-25T07:26:49;100787.38;;;10.88;72.57
84382;BME280;74572;51.834;5.820;2024-03-25T07:29:16;100790.53;;;10.84;72.53
84382;BME280;74572;51.834;5.820;2024-03-25T07:31:42;100798.72;;;10.62;72.84
84382;BME280;74572;51.834;5.820;2024-03-25T07:34:08;100797.38;;;10.52;73.63
84382;BME280;74572;51.834;5.820;2024-03-25T07:36:40;100800.25;;;11.41;72.17
84382;BME280;74572;51.834;5.820;2024-03-25T07:39:05;100791.63;;;12.63;70.34
84382;BME280;74572;51.834;5.820;2024-03-25T07:41:31;100795.88;;;13.21;68.09
84382;BME280;74572;51.834;5.820;2024-03-25T07:43:57;100794.50;;;13.70;67.74
84382;BME280;74572;51.834;5.820;2024-03-25T07:46:22;100785.66;;;14.05;66.18
84382;BME280;74572;51.834;5.820;2024-03-25T07:48:48;100785.84;;;14.32;66.31
84382;BME280;74572;51.834;5.820;2024-03-25T07:51:14;100781.50;;;16.30;63.75
84382;BME280;74572;51.834;5.820;2024-03-25T07:53:39;100771.16;;;18.24;60.83
84382;BME280;74572;51.834;5.820;2024-03-25T07:56:05;100770.25;;;19.56;57.86
84382;BME280;74572;51.834;5.820;2024-03-25T07:58:30;100780.13;;;20.42;54.49
84382;BME280;74572;51.834;5.820;2024-03-25T08:00:56;100774.06;;;20.39;53.58
84382;BME280;74572;51.834;5.820;2024-03-25T08:03:22;100774.22;;;19.90;52.32
84382;BME280;74572;51.834;5.820;2024-03-25T08:05:50;100783.28;;;20.23;52.56
84382;BME280;74572;51.834;5.820;2024-03-25T08:08:19;100777.88;;;20.05;51.11
84382;BME280;74572;51.834;5.820;2024-03-25T08:10:46;100788.47;;;19.65;51.01
84382;BME280;74572;51.834;5.820;2024-03-25T08:13:12;100779.53;;;19.99;50.38
84382;BME280;74572;51.834;5.820;2024-03-25T08:15:37;100774.94;;;20.41;49.17
84382;BME280;74572;51.834;5.820;2024-03-25T08:18:03;100789.69;;;21.23;47.79
84382;BME280;74572;51.834;5.820;2024-03-25T08:20:30;100783.25;;;21.80;45.68
84382;BME280;74572;51.834;5.820;2024-03-25T08:22:55;100782.56;;;22.01;44.17
84382;BME280;74572;51.834;5.820;2024-03-25T08:25:21;100776.66;;;22.22;42.94
84382;BME280;74572;51.834;5.820;2024-03-25T08:27:46;100774.22;;;22.61;42.84
84382;BME280;74572;51.834;5.820;2024-03-25T08:30:16;100769.91;;;22.63;41.07
84382;BME280;74572;51.834;5.820;2024-03-25T08:32:41;100784.78;;;23.33;40.50
84382;BME280;74572;51.834;5.820;2024-03-25T08:35:07;100785.56;;;22.77;41.09
84382;BME280;74572;51.834;5.820;2024-03-25T08:37:32;100795.31;;;21.72;41.61
84382;BME280;74572;51.834;5.820;2024-03-25T08:40:01;100776.63;;;22.17;40.70
84382;BME280;74572;51.834;5.820;2024-03-25T08:42:29;100773.50;;;23.09;39.69
84382;BME280;74572;51.834;5.820;2024-03-25T08:44:55;100780.97;;;22.21;39.93
84382;BME280;74572;51.834;5.820;2024-03-25T08:47:23;100791.19;;;21.03;40.85
84382;BME280;74572;51.834;5.820;2024-03-25T08:49:49;100790.63;;;20.54;40.44
84382;BME280;74572;51.834;5.820;2024-03-25T08:52:14;100783.41;;;21.01;40.93
84382;BME280;74572;51.834;5.820;2024-03-25T08:54:40;100773.03;;;21.98;39.68
84382;BME280;74572;51.834;5.820;2024-03-25T08:57:05;100772.53;;;22.71;38.37
84382;BME280;74572;51.834;5.820;2024-03-25T08:59:31;100778.66;;;22.81;38.21
84382;BME280;74572;51.834;5.820;2024-03-25T09:01:56;100770.06;;;23.12;37.86
84382;BME280;74572;51.834;5.820;2024-03-25T09:04:22;100765.66;;;24.34;36.14
84382;BME280;74572;51.834;5.820;2024-03-25T09:06:48;100764.88;;;23.87;35.58
84382;BME280;74572;51.834;5.820;2024-03-25T09:09:13;100760.63;;;20.04;39.98
84382;BME280;74572;51.834;5.820;2024-03-25T09:11:57;100761.06;;;18.35;41.43
84382;BME280;74572;51.834;5.820;2024-03-25T09:14:22;100763.72;;;17.29;42.55
84382;BME280;74572;51.834;5.820;2024-03-25T09:16:48;100754.47;;;19.40;39.25
84382;BME280;74572;51.834;5.820;2024-03-25T09:19:13;100753.19;;;20.99;36.70
84382;BME280;74572;51.834;5.820;2024-03-25T09:21:39;100755.94;;;22.23;35.54
84382;BME280;74572;51.834;5.820;2024-03-25T09:24:05;100757.47;;;20.94;37.17
84382;BME280;74572;51.834;5.820;2024-03-25T09:26:30;100754.94;;;20.27;37.37
84382;BME280;74572;51.834;5.820;2024-03-25T09:28:56;100757.63;;;20.35;37.38
84382;BME280;74572;51.834;5.820;2024-03-25T09:31:22;100758.78;;;21.35;36.01
84382;BME280;74572;51.834;5.820;2024-03-25T09:33:48;100747.41;;;22.50;34.27
84382;BME280;74572;51.834;5.820;2024-03-25T09:36:14;100751.00;;;22.98;33.49
84382;BME280;74572;51.834;5.820;2024-03-25T09:38:40;100756.22;;;23.04;33.01
84382;BME280;74572;51.834;5.820;2024-03-25T09:41:08;100740.66;;;23.31;32.55
84382;BME280;74572;51.834;5.820;2024-03-25T09:43:42;100733.72;;;23.33;31.87
84382;BME280;74572;51.834;5.820;2024-03-25T09:46:09;100724.22;;;23.78;32.33
84382;BME280;74572;51.834;5.820;2024-03-25T09:48:36;100729.38;;;23.87;31.24
84382;BME280;74572;51.834;5.820;2024-03-25T09:51:02;100737.19;;;22.99;31.61
84382;BME280;74572;51.834;5.820;2024-03-25T09:53:28;100732.63;;;22.25;32.63
84382;BME280;74572;51.834;5.820;2024-03-25T09:55:56;100728.38;;;22.54;32.60
84382;BME280;74572;51.834;5.820;2024-03-25T09:58:22;100740.53;;;22.66;31.68
84382;BME280;74572;51.834;5.820;2024-03-25T10:00:49;100735.44;;;22.86;31.15
84382;BME280;74572;51.834;5.820;2024-03-25T10:03:15;100731.00;;;22.60;31.00
84382;BME280;74572;51.834;5.820;2024-03-25T10:05:41;100736.09;;;22.27;31.05
84382;BME280;74572;51.834;5.820;2024-03-25T10:08:07;100721.25;;;22.01;31.21
84382;BME280;74572;51.834;5.820;2024-03-25T10:10:36;100730.16;;;21.22;33.26
84382;BME280;74572;51.834;5.820;2024-03-25T10:13:05;100718.31;;;19.37;34.15
84382;BME280;74572;51.834;5.820;2024-03-25T10:15:32;100711.84;;;19.61;34.46
84382;BME280;74572;51.834;5.820;2024-03-25T10:17:57;100715.06;;;20.77;33.43
84382;BME280;74572;51.834;5.820;2024-03-25T10:20:23;100707.34;;;20.81;33.54
84382;BME280;74572;51.834;5.820;2024-03-25T10:22:49;100691.16;;;22.28;32.31
84382;BME280;74572;51.834;5.820;2024-03-25T10:25:29;100695.69;;;23.05;31.66
84382;BME280;74572;51.834;5.820;2024-03-25T10:27:59;100687.00;;;23.42;31.10
84382;BME280;74572;51.834;5.820;2024-03-25T10:30:28;100692.19;;;22.85;31.13
84382;BME280;74572;51.834;5.820;2024-03-25T10:32:57;100698.22;;;22.79;31.25
84382;BME280;74572;51.834;5.820;2024-03-25T10:35:26;100693.50;;;20.79;33.27
84382;BME280;74572;51.834;5.820;2024-03-25T10:37:55;100689.03;;;19.90;34.40
84382;BME280;74572;51.834;5.820;2024-03-25T10:40:23;100695.31;;;18.99;35.11
84382;BME280;74572;51.834;5.820;2024-03-25T10:42:51;100688.53;;;18.15;36.11
84382;BME280;74572;51.834;5.820;2024-03-25T10:45:17;100683.88;;;17.98;35.90
84382;BME280;74572;51.834;5.820;2024-03-25T10:47:42;100691.34;;;17.85;36.22
84382;BME280;74572;51.834;5.820;2024-03-25T10:50:09;100694.50;;;16.40;38.12
84382;BME280;74572;51.834;5.820;2024-03-25T10:52:39;100683.66;;;15.35;39.95
84382;BME280;74572;51.834;5.820;2024-03-25T10:55:06;100694.06;;;14.89;40.54
84382;BME280;74572;51.834;5.820;2024-03-25T10:57:33;100684.88;;;14.46;40.82
84382;BME280;74572;51.834;5.820;2024-03-25T11:00:01;100684.19;;;14.28;40.59
84382;BME280;74572;51.834;5.820;2024-03-25T11:02:30;100672.56;;;14.36;40.52
84382;BME280;74572;51.834;5.820;2024-03-25T11:04:56;100663.84;;;14.79;40.23
84382;BME280;74572;51.834;5.820;2024-03-25T11:07:31;100664.47;;;15.24;39.74
84382;BME280;74572;51.834;5.820;2024-03-25T11:10:07;100676.53;;;15.01;40.20
84382;BME280;74572;51.834;5.820;2024-03-25T11:12:35;100662.00;;;14.75;40.72
84382;BME280;74572;51.834;5.820;2024-03-25T11:15:02;100669.34;;;14.66;41.32
84382;BME280;74572;51.834;5.820;2024-03-25T11:17:29;100666.63;;;14.37;41.83
84382;BME280;74572;51.834;5.820;2024-03-25T11:20:09;100673.84;;;14.25;42.59
84382;BME280;74572;51.834;5.820;2024-03-25T11:22:35;100657.91;;;14.32;42.75
84382;BME280;74572;51.834;5.820;2024-03-25T11:25:05;100661.69;;;14.91;41.59
84382;BME280;74572;51.834;5.820;2024-03-25T11:27:34;100656.28;;;15.34;40.69
84382;BME280;74572;51.834;5.820;2024-03-25T11:30:01;100656.81;;;15.79;40.11
84382;BME280;74572;51.834;5.820;2024-03-25T11:32:28;100648.53;;;16.18;39.94
84382;BME280;74572;51.834;5.820;2024-03-25T11:34:54;100655.81;;;16.33;39.43
84382;BME280;74572;51.834;5.820;2024-03-25T11:37:19;100647.47;;;16.10;39.60
84382;BME280;74572;51.834;5.820;2024-03-25T11:39:45;100645.88;;;15.85;39.33
84382;BME280;74572;51.834;5.820;2024-03-25T11:42:10;100644.81;;;15.78;39.68
84382;BME280;74572;51.834;5.820;2024-03-25T11:44:38;100636.66;;;15.63;40.09
84382;BME280;74572;51.834;5.820;2024-03-25T11:47:07;100638.44;;;14.60;41.33
84382;BME280;74572;51.834;5.820;2024-03-25T11:49:38;100639.69;;;14.23;41.83
84382;BME280;74572;51.834;5.820;2024-03-25T11:52:06;100634.31;;;14.65;41.03
84382;BME280;74572;51.834;5.820;2024-03-25T11:54:32;100619.88;;;14.92;40.35
84382;BME280;74572;51.834;5.820;2024-03-25T11:56:58;100614.81;;;14.94;40.07
84382;BME280;74572;51.834;5.820;2024-03-25T11:59:24;100611.44;;;14.95;39.88
84382;BME280;74572;51.834;5.820;2024-03-25T12:01:50;100620.66;;;14.90;39.51
84382;BME280;74572;51.834;5.820;2024-03-25T12:04:17;100607.84;;;14.90;39.95
84382;BME280;74572;51.834;5.820;2024-03-25T12:06:44;100606.44;;;14.72;39.93
84382;BME280;74572;51.834;5.820;2024-03-25T12:09:13;100608.19;;;14.73;39.58
84382;BME280;74572;51.834;5.820;2024-03-25T12:12:00;100598.03;;;14.76;39.21
84382;BME280;74572;51.834;5.820;2024-03-25T12:14:25;100598.59;;;14.68;39.06
84382;BME280;74572;51.834;5.820;2024-03-25T12:16:55;100594.34;;;14.68;38.71
84382;BME280;74572;51.834;5.820;2024-03-25T12:19:20;100584.00;;;14.16;39.80
84382;BME280;74572;51.834;5.820;2024-03-25T12:21:49;100583.06;;;14.62;40.00
84382;BME280;74572;51.834;5.820;2024-03-25T12:24:14;100580.34;;;15.11;39.62
84382;BME280;74572;51.834;5.820;2024-03-25T12:26:41;100575.47;;;15.47;39.57
84382;BME280;74572;51.834;5.820;2024-03-25T12:29:07;100571.19;;;15.74;39.03
84382;BME280;74572;51.834;5.820;2024-03-25T12:31:32;100568.78;;;15.24;39.71
84382;BME280;74572;51.834;5.820;2024-03-25T12:33:58;100562.00;;;14.97;39.67
84382;BME280;74572;51.834;5.820;2024-03-25T12:36:23;100555.56;;;15.10;39.03
84382;BME280;74572;51.834;5.820;2024-03-25T12:38:55;100549.47;;;15.06;38.35
84382;BME280;74572;51.834;5.820;2024-03-25T12:41:22;100542.97;;;14.64;38.83
84382;BME280;74572;51.834;5.820;2024-03-25T12:43:50;100545.50;;;13.89;39.54
84382;BME280;74572;51.834;5.820;2024-03-25T12:46:16;100547.47;;;13.26;40.33
84382;BME280;74572;51.834;5.820;2024-03-25T12:48:42;100543.34;;;12.87;40.85
84382;BME280;74572;51.834;5.820;2024-03-25T12:51:15;100547.47;;;13.05;40.84
84382;BME280;74572;51.834;5.820;2024-03-25T12:53:41;100548.34;;;13.73;39.37